Time;durP1;ratioP1;P1;durP2;ratioP2;P2;SDS_P1;SDS_P2;PMS_P1;PMS_P2;Temp;Humidity;BMP_temperature;BMP_pressure;BME280_temperature;BME280_humidity;BME280_pressure;Samples;Min_cycle;Max_cycle;Signal;HPM_P1;HPM_P2
2021/04/03 00:02:12;;;;;;;7.30;5.00;;;;;;;;;;5048587;28;20171;-86
2021/04/03 00:04:38;;;;;;;7.00;4.18;;;;;;;;;;5045935;28;20607;-85
2021/04/03 00:07:04;;;;;;;6.18;5.30;;;;;;;;;;5044693;28;20179;-85
2021/04/03 00:09:30;;;;;;;7.22;6.40;;;;;;;;;;5046087;28;20281;-85
2021/04/03 00:11:56;;;;;;;8.00;4.20;;;;;;;;;;5027476;28;20174;-83
2021/04/03 00:14:22;;;;;;;9.20;5.60;;;;;;;;;;5060478;28;20191;-83
2021/04/03 00:16:49;;;;;;;6.40;4.10;;;;;;;;;;5060572;28;20402;-83
2021/04/03 00:19:15;;;;;;;6.40;5.03;;;;;;;;;;5040334;28;20211;-85
2021/04/03 00:21:41;;;;;;;6.37;4.47;;;;;;;;;;5040540;28;20421;-85
2021/04/03 00:24:07;;;;;;;8.30;5.47;;;;;;;;;;5040462;28;20417;-85
2021/04/03 00:26:33;;;;;;;9.90;4.95;;;;;;;;;;5058686;28;20414;-85
2021/04/03 00:28:59;;;;;;;6.03;3.85;;;;;;;;;;5058644;28;20199;-84
2021/04/03 00:31:25;;;;;;;6.07;3.70;;;;;;;;;;5040862;28;20175;-84
2021/04/03 00:33:51;;;;;;;7.07;4.50;;;;;;;;;;5041076;28;20529;-84
2021/04/03 00:36:17;;;;;;;10.02;5.80;;;;;;;;;;5039961;28;20194;-85
2021/04/03 00:38:43;;;;;;;5.25;4.75;;;;;;;;;;5048766;28;20187;-85
2021/04/03 00:41:09;;;;;;;6.60;4.65;;;;;;;;;;5014719;28;20190;-85
2021/04/03 00:43:35;;;;;;;10.27;4.80;;;;;;;;;;5033155;28;20179;-85
2021/04/03 00:46:02;;;;;;;7.88;5.90;;;;;;;;;;5047693;28;20225;-85
2021/04/03 00:48:29;;;;;;;9.52;5.13;;;;;;;;;;5048486;28;20286;-85
2021/04/03 00:50:56;;;;;;;8.63;5.90;;;;;;;;;;5049945;28;20174;-84
2021/04/03 00:53:27;;;;;;;8.10;4.88;;;;;;;;;;5046863;28;20227;-85
2021/04/03 00:56:02;;;;;;;7.32;5.28;;;;;;;;;;5014016;28;20182;-84
2021/04/03 00:58:29;;;;;;;8.05;6.38;;;;;;;;;;5017149;28;20187;-84
2021/04/03 01:00:59;;;;;;;10.45;6.45;;;;;;;;;;5029296;28;20172;-85
2021/04/03 01:03:29;;;;;;;11.38;5.25;;;;;;;;;;5028452;28;20171;-86
2021/04/03 01:06:02;;;;;;;10.45;5.60;;;;;;;;;;5029955;28;20589;-85
2021/04/03 01:08:31;;;;;;;5.85;5.25;;;;;;;;;;5047955;28;20247;-86
2021/04/03 01:10:57;;;;;;;10.80;6.85;;;;;;;;;;5029077;28;20187;-84
2021/04/03 01:13:47;;;;;;;9.20;5.47;;;;;;;;;;5028793;28;20198;-85
2021/04/03 01:16:27;;;;;;;7.60;6.32;;;;;;;;;;5029168;28;20167;-85
2021/04/03 01:19:12;;;;;;;7.22;5.20;;;;;;;;;;5028906;28;20194;-85
2021/04/03 01:21:57;;;;;;;8.18;5.97;;;;;;;;;;5012105;28;20171;-84
2021/04/03 01:24:42;;;;;;;7.45;5.95;;;;;;;;;;5029122;28;20236;-84
2021/04/03 01:27:20;;;;;;;8.48;5.38;;;;;;;;;;5028918;28;20171;-84
2021/04/03 01:29:53;;;;;;;6.68;6.03;;;;;;;;;;5047473;28;20274;-84
2021/04/03 01:32:25;;;;;;;6.85;5.47;;;;;;;;;;5029358;28;20534;-84
2021/04/03 01:34:53;;;;;;;5.88;4.75;;;;;;;;;;5030904;28;20263;-85
2021/04/03 01:37:21;;;;;;;6.95;6.10;;;;;;;;;;5051753;28;20274;-85
2021/04/03 01:39:49;;;;;;;8.90;6.45;;;;;;;;;;5023067;28;20198;-84
2021/04/03 01:42:19;;;;;;;8.15;5.28;;;;;;;;;;5040033;28;20159;-85
2021/04/03 01:44:52;;;;;;;9.00;6.25;;;;;;;;;;5051833;28;20159;-85
2021/04/03 01:47:24;;;;;;;11.07;8.18;;;;;;;;;;5047935;28;20174;-85
2021/04/03 01:49:53;;;;;;;9.77;6.40;;;;;;;;;;5033137;23;20285;-81
2021/04/03 01:52:24;;;;;;;8.88;5.80;;;;;;;;;;4989962;28;20186;-82
2021/04/03 01:54:52;;;;;;;7.78;5.20;;;;;;;;;;4991096;28;20212;-82
2021/04/03 01:57:19;;;;;;;8.30;6.00;;;;;;;;;;5007533;28;20675;-81
2021/04/03 01:59:59;;;;;;;8.00;5.93;;;;;;;;;;5022995;28;20187;-82
2021/04/03 02:02:42;;;;;;;8.98;6.00;;;;;;;;;;5024895;28;20219;-82
2021/04/03 02:05:12;;;;;;;7.90;6.15;;;;;;;;;;4990993;28;20164;-82
2021/04/03 02:07:39;;;;;;;8.00;6.45;;;;;;;;;;5005313;28;20168;-82
2021/04/03 02:10:06;;;;;;;11.25;6.38;;;;;;;;;;4988648;28;20556;-81
2021/04/03 02:12:42;;;;;;;8.93;6.32;;;;;;;;;;5023335;28;20170;-81
2021/04/03 02:15:24;;;;;;;11.57;7.10;;;;;;;;;;5004562;28;20175;-82
2021/04/03 02:17:56;;;;;;;10.82;7.50;;;;;;;;;;5023199;28;20168;-83
2021/04/03 02:20:23;;;;;;;12.05;7.05;;;;;;;;;;5007195;28;20291;-83
2021/04/03 02:22:49;;;;;;;10.43;6.05;;;;;;;;;;5004472;28;20235;-83
2021/04/03 02:25:16;;;;;;;9.93;6.15;;;;;;;;;;5006543;28;20180;-84
2021/04/03 02:27:43;;;;;;;11.55;7.90;;;;;;;;;;4988648;28;20184;-81
2021/04/03 02:30:12;;;;;;;8.57;6.38;;;;;;;;;;4988838;28;20200;-84
2021/04/03 02:32:57;;;;;;;11.25;6.43;;;;;;;;;;4973001;28;20180;-84
2021/04/03 02:35:29;;;;;;;10.93;5.68;;;;;;;;;;4990477;28;20160;-83
2021/04/03 02:37:58;;;;;;;17.52;6.97;;;;;;;;;;4996156;28;20224;-83
2021/04/03 02:40:27;;;;;;;10.10;6.15;;;;;;;;;;4997146;28;20196;-83
2021/04/03 02:43:10;;;;;;;7.93;5.95;;;;;;;;;;4989039;28;20176;-84
2021/04/03 02:45:43;;;;;;;13.50;7.53;;;;;;;;;;4988400;28;20213;-84
2021/04/03 02:48:17;;;;;;;8.48;7.07;;;;;;;;;;4988723;28;20163;-83
2021/04/03 02:50:44;;;;;;;10.95;7.40;;;;;;;;;;4994343;28;20231;-82
2021/04/03 02:53:14;;;;;;;11.85;6.30;;;;;;;;;;5000149;28;20196;-83
2021/04/03 02:55:44;;;;;;;7.43;6.43;;;;;;;;;;5018131;28;20165;-83
2021/04/03 02:58:12;;;;;;;11.90;6.63;;;;;;;;;;5000959;28;20194;-83
2021/04/03 03:00:40;;;;;;;6.95;5.72;;;;;;;;;;5006166;28;20189;-83
2021/04/03 03:03:07;;;;;;;9.32;6.47;;;;;;;;;;4985674;28;20181;-83
2021/04/03 03:05:33;;;;;;;9.95;6.28;;;;;;;;;;4986130;28;20168;-83
2021/04/03 03:08:00;;;;;;;8.65;5.60;;;;;;;;;;4986868;28;20176;-82
2021/04/03 03:10:28;;;;;;;13.20;8.50;;;;;;;;;;4986493;28;20196;-83
2021/04/03 03:12:56;;;;;;;9.75;6.78;;;;;;;;;;4970019;28;20176;-83
2021/04/03 03:15:28;;;;;;;11.38;7.43;;;;;;;;;;4971271;28;20556;-83
2021/04/03 03:17:56;;;;;;;9.77;6.20;;;;;;;;;;4989130;28;20161;-82
2021/04/03 03:20:22;;;;;;;9.43;6.75;;;;;;;;;;5013797;28;20245;-83
2021/04/03 03:22:49;;;;;;;10.20;6.85;;;;;;;;;;5001299;28;20164;-84
2021/04/03 03:25:17;;;;;;;9.98;7.35;;;;;;;;;;5001194;28;20165;-84
2021/04/03 03:27:45;;;;;;;10.50;7.20;;;;;;;;;;5003867;28;20173;-82
2021/04/03 03:30:17;;;;;;;11.48;8.38;;;;;;;;;;4991629;28;20220;-83
2021/04/03 03:32:45;;;;;;;8.85;7.93;;;;;;;;;;4991043;28;20165;-83
2021/04/03 03:35:12;;;;;;;9.18;7.60;;;;;;;;;;5008571;28;20816;-83
2021/04/03 03:37:41;;;;;;;11.48;8.30;;;;;;;;;;4991439;28;20601;-84
2021/04/03 03:40:08;;;;;;;20.48;8.88;;;;;;;;;;4991275;28;20188;-83
2021/04/03 03:42:35;;;;;;;8.82;8.02;;;;;;;;;;4989876;28;20180;-83
2021/04/03 03:45:08;;;;;;;10.70;8.60;;;;;;;;;;4989357;28;20173;-84
2021/04/03 03:47:35;;;;;;;11.30;7.78;;;;;;;;;;4989719;28;20184;-83
2021/04/03 03:50:05;;;;;;;12.80;7.75;;;;;;;;;;4973033;28;20211;-85
2021/04/03 03:52:33;;;;;;;14.60;8.82;;;;;;;;;;4973136;28;20172;-84
2021/04/03 03:55:01;;;;;;;13.20;8.70;;;;;;;;;;4972954;28;20200;-84
2021/04/03 03:57:27;;;;;;;8.35;7.20;;;;;;;;;;4990686;28;20591;-84
2021/04/03 03:59:53;;;;;;;8.45;6.90;;;;;;;;;;4973986;28;20196;-83
2021/04/03 04:02:20;;;;;;;12.90;7.82;;;;;;;;;;4991521;28;20251;-84
2021/04/03 04:04:46;;;;;;;11.25;8.75;;;;;;;;;;4997122;28;20184;-83
2021/04/03 04:07:15;;;;;;;11.95;7.95;;;;;;;;;;5002599;28;20176;-82
2021/04/03 04:09:42;;;;;;;9.40;7.22;;;;;;;;;;5000966;28;20193;-80
2021/04/03 04:12:09;;;;;;;10.32;7.97;;;;;;;;;;5003309;28;20175;-84
2021/04/03 04:14:43;;;;;;;9.23;8.25;;;;;;;;;;5003238;28;20184;-83
2021/04/03 04:17:12;;;;;;;10.63;6.53;;;;;;;;;;4999450;28;20279;-81
2021/04/03 04:19:41;;;;;;;12.63;7.45;;;;;;;;;;5002117;28;20239;-84
2021/04/03 04:22:08;;;;;;;10.32;6.95;;;;;;;;;;5002927;28;20181;-83
2021/04/03 04:24:34;;;;;;;10.43;8.13;;;;;;;;;;5003047;28;20187;-83
2021/04/03 04:27:04;;;;;;;11.40;7.15;;;;;;;;;;5001043;28;20180;-83
2021/04/03 04:29:32;;;;;;;16.30;6.97;;;;;;;;;;5002611;28;20269;-83
2021/04/03 04:32:02;;;;;;;13.20;6.68;;;;;;;;;;5001218;28;20203;-82
2021/04/03 04:34:31;;;;;;;12.57;7.22;;;;;;;;;;4999010;28;20196;-79
2021/04/03 04:37:00;;;;;;;10.52;8.00;;;;;;;;;;5016667;28;20206;-81
2021/04/03 04:39:34;;;;;;;9.95;7.28;;;;;;;;;;5000033;28;20223;-83
2021/04/03 04:42:04;;;;;;;7.93;6.07;;;;;;;;;;4991698;28;20176;-84
2021/04/03 04:44:30;;;;;;;11.13;8.02;;;;;;;;;;4988517;28;20172;-82
2021/04/03 04:46:56;;;;;;;12.63;6.93;;;;;;;;;;5005633;28;20228;-84
2021/04/03 04:49:23;;;;;;;10.32;8.10;;;;;;;;;;4987695;28;20212;-84
2021/04/03 04:51:49;;;;;;;10.38;7.30;;;;;;;;;;5005386;28;20172;-83
2021/04/03 04:54:23;;;;;;;7.82;6.93;;;;;;;;;;4987815;28;20210;-84
2021/04/03 04:56:51;;;;;;;8.50;6.18;;;;;;;;;;5007315;28;20195;-83
2021/04/03 04:59:25;;;;;;;15.02;7.35;;;;;;;;;;4989892;28;20206;-81
2021/04/03 05:02:02;;;;;;;14.80;7.82;;;;;;;;;;5004103;28;20152;-82
2021/04/03 05:04:28;;;;;;;11.07;6.63;;;;;;;;;;5002501;28;20165;-83
2021/04/03 05:06:54;;;;;;;9.27;5.75;;;;;;;;;;5019671;28;20180;-84
2021/04/03 05:09:20;;;;;;;12.48;6.80;;;;;;;;;;4981697;28;20192;-84
2021/04/03 05:11:46;;;;;;;7.65;5.30;;;;;;;;;;4988884;28;20196;-84
2021/04/03 05:14:12;;;;;;;6.70;5.28;;;;;;;;;;5006452;28;20204;-84
2021/04/03 05:16:39;;;;;;;8.45;5.40;;;;;;;;;;5005134;28;20169;-84
2021/04/03 05:19:05;;;;;;;12.45;6.22;;;;;;;;;;4987245;28;20203;-84
2021/04/03 05:21:31;;;;;;;8.32;5.13;;;;;;;;;;5004878;28;20175;-83
2021/04/03 05:23:57;;;;;;;8.15;6.20;;;;;;;;;;4988362;28;20199;-83
2021/04/03 05:26:23;;;;;;;7.78;4.60;;;;;;;;;;5005690;28;20164;-84
2021/04/03 05:28:49;;;;;;;7.30;6.65;;;;;;;;;;4989024;28;20173;-83
2021/04/03 05:31:20;;;;;;;8.90;6.40;;;;;;;;;;4989977;28;20239;-83
2021/04/03 05:33:46;;;;;;;6.80;6.20;;;;;;;;;;4991805;28;20886;-84
2021/04/03 05:36:12;;;;;;;14.00;6.30;;;;;;;;;;4997603;28;20507;-82
2021/04/03 05:38:38;;;;;;;6.37;5.73;;;;;;;;;;4995495;28;20426;-83
2021/04/03 05:41:04;;;;;;;7.28;5.65;;;;;;;;;;4995713;28;20781;-83
2021/04/03 05:43:31;;;;;;;5.67;5.13;;;;;;;;;;5012087;28;20172;-84
2021/04/03 05:45:57;;;;;;;6.13;5.23;;;;;;;;;;5008001;28;20422;-84
2021/04/03 05:48:24;;;;;;;12.90;5.23;;;;;;;;;;5009187;28;20934;-83
2021/04/03 05:51:00;;;;;;;8.00;5.50;;;;;;;;;;5012870;28;20451;-84
2021/04/03 05:53:27;;;;;;;7.67;4.93;;;;;;;;;;5029296;28;20435;-84
2021/04/03 05:55:57;;;;;;;12.20;5.33;;;;;;;;;;5027663;28;20487;-83
2021/04/03 05:58:23;;;;;;;8.13;5.70;;;;;;;;;;5008715;28;20916;-82
2021/04/03 06:00:52;;;;;;;6.93;5.80;;;;;;;;;;5010790;28;20431;-82
2021/04/03 06:03:18;;;;;;;7.83;5.77;;;;;;;;;;5026659;28;20422;-83
2021/04/03 06:05:45;;;;;;;8.03;5.97;;;;;;;;;;5025851;28;20392;-84
2021/04/03 06:08:11;;;;;;;8.07;5.13;;;;;;;;;;5007979;28;20415;-83
2021/04/03 06:10:37;;;;;;;5.67;5.17;;;;;;;;;;5006886;28;20462;-85
2021/04/03 06:13:16;;;;;;;7.87;5.50;;;;;;;;;;5025811;28;20942;-83
2021/04/03 06:15:42;;;;;;;9.43;5.50;;;;;;;;;;5007297;28;20379;-84
2021/04/03 06:18:15;;;;;;;7.87;5.37;;;;;;;;;;5024620;28;20403;-83
2021/04/03 06:20:45;;;;;;;6.07;4.70;;;;;;;;;;5006180;28;20431;-84
2021/04/03 06:23:11;;;;;;;5.93;4.93;;;;;;;;;;5024861;28;20473;-84
2021/04/03 06:25:57;;;;;;;6.67;4.77;;;;;;;;;;5025393;28;20415;-83
2021/04/03 06:28:51;;;;;;;;;;;;;;;;;;;;;
2021/04/03 06:31:39;;;;;;;5.13;3.77;;;;;;;;;;5034830;28;20396;-83
2021/04/03 06:36:54;;;;;;;5.17;3.97;;;;;;;;;;4999516;28;20426;-84
2021/04/03 06:39:21;;;;;;;7.67;4.20;;;;;;;;;;5025425;28;20415;-84
2021/04/03 06:41:47;;;;;;;7.00;5.27;;;;;;;;;;5019433;28;20418;-83
2021/04/03 06:44:13;;;;;;;4.87;3.90;;;;;;;;;;5020493;28;20422;-83
2021/04/03 06:46:47;;;;;;;5.70;3.40;;;;;;;;;;5020591;28;20498;-84
2021/04/03 06:49:15;;;;;;;5.33;4.20;;;;;;;;;;5013066;28;20454;-84
2021/04/03 06:51:42;;;;;;;4.97;4.07;;;;;;;;;;5022410;28;20387;-84
2021/04/03 06:54:08;;;;;;;5.18;3.50;;;;;;;;;;5004599;28;20206;-83
2021/04/03 06:56:35;;;;;;;9.68;3.42;;;;;;;;;;5003889;28;20168;-85
2021/04/03 06:59:03;;;;;;;4.25;2.60;;;;;;;;;;5005318;28;20188;-83
2021/04/03 07:01:47;;;;;;;4.40;3.50;;;;;;;;;;5005730;28;20497;-83
2021/04/03 07:04:34;;;;;;;6.70;2.83;;;;;;;;;;5009111;28;20218;-83
2021/04/03 07:07:00;;;;;;;3.65;2.90;;;;;;;;;;5000073;28;20194;-84
2021/04/03 07:09:26;;;;;;;4.15;3.05;;;;;;;;;;5007967;28;20560;-84
2021/04/03 07:11:53;;;;;;;2.75;2.45;;;;;;;;;;5010232;28;20199;-84
2021/04/03 07:14:21;;;;;;;3.95;3.08;;;;;;;;;;5009312;28;20200;-83
2021/04/03 07:16:48;;;;;;;3.38;2.40;;;;;;;;;;5034723;28;20164;-84
2021/04/03 07:19:15;;;;;;;3.40;2.50;;;;;;;;;;5033727;28;20191;-84
2021/04/03 07:21:42;;;;;;;2.90;2.67;;;;;;;;;;5035801;28;20171;-84
2021/04/03 07:24:12;;;;;;;6.53;3.85;;;;;;;;;;5002088;28;20188;-82
2021/04/03 07:26:39;;;;;;;4.97;1.95;;;;;;;;;;5018571;28;20172;-84
2021/04/03 07:29:05;;;;;;;5.57;2.28;;;;;;;;;;5033585;28;20184;-84
2021/04/03 07:31:37;;;;;;;4.90;2.75;;;;;;;;;;5010693;28;20168;-84
2021/04/03 07:34:04;;;;;;;3.25;2.40;;;;;;;;;;5027497;28;20196;-84
2021/04/03 07:36:37;;;;;;;2.55;2.35;;;;;;;;;;4992850;28;20176;-84
2021/04/03 07:39:23;;;;;;;3.70;2.67;;;;;;;;;;5028639;28;20187;-85
2021/04/03 07:41:49;;;;;;;3.90;2.72;;;;;;;;;;4999478;28;20179;-83
2021/04/03 07:44:15;;;;;;;3.28;2.00;;;;;;;;;;5026755;28;20183;-84
2021/04/03 07:46:43;;;;;;;2.87;1.90;;;;;;;;;;5008963;28;20176;-83
2021/04/03 07:51:46;;;;;;;4.43;2.47;;;;;;;;;;5047586;28;20191;-84
2021/04/03 07:54:25;;;;;;;3.85;2.15;;;;;;;;;;5029005;28;20461;-82
2021/04/03 07:56:56;;;;;;;1.92;1.77;;;;;;;;;;5012529;28;20182;-83
2021/04/03 07:59:41;;;;;;;2.85;1.65;;;;;;;;;;5027659;28;20187;-83
2021/04/03 08:02:27;;;;;;;3.95;1.70;;;;;;;;;;5028118;28;20172;-82
2021/04/03 08:04:53;;;;;;;2.15;1.98;;;;;;;;;;5028946;28;20179;-83
2021/04/03 08:07:31;;;;;;;2.50;1.80;;;;;;;;;;5011400;28;20167;-86
2021/04/03 08:10:24;;;;;;;3.42;2.33;;;;;;;;;;5029908;28;20183;-83
2021/04/03 08:13:03;;;;;;;1.50;1.30;;;;;;;;;;5048095;28;20348;-81
2021/04/03 08:15:49;;;;;;;1.73;1.33;;;;;;;;;;5018179;28;20422;-84
2021/04/03 08:18:15;;;;;;;3.50;1.87;;;;;;;;;;5011113;28;20467;-82
2021/04/03 08:20:56;;;;;;;6.35;1.67;;;;;;;;;;5027452;28;20453;-84
2021/04/03 08:23:30;;;;;;;1.73;1.35;;;;;;;;;;5027168;28;20174;-84
2021/04/03 08:25:59;;;;;;;3.13;1.70;;;;;;;;;;5026588;28;20158;-82
2021/04/03 08:28:26;;;;;;;2.60;1.60;;;;;;;;;;5026869;28;20414;-84
2021/04/03 08:30:52;;;;;;;1.80;1.70;;;;;;;;;;5026273;28;20434;-83
2021/04/03 08:33:19;;;;;;;2.10;1.23;;;;;;;;;;5009535;28;20219;-82
2021/04/03 08:35:47;;;;;;;2.33;1.20;;;;;;;;;;5022857;28;20175;-81
2021/04/03 08:38:24;;;;;;;1.30;1.10;;;;;;;;;;5022207;28;20185;-82
2021/04/03 08:40:51;;;;;;;1.70;1.40;;;;;;;;;;5040380;28;20194;-83
2021/04/03 08:43:27;;;;;;;2.50;1.10;;;;;;;;;;5007166;28;20422;-83
2021/04/03 08:45:54;;;;;;;3.87;1.87;;;;;;;;;;5041730;28;20382;-82
2021/04/03 08:48:21;;;;;;;1.20;1.03;;;;;;;;;;5041685;28;20506;-83
2021/04/03 08:50:51;;;;;;;2.75;1.20;;;;;;;;;;5007387;28;20499;-81
2021/04/03 08:53:20;;;;;;;1.52;1.30;;;;;;;;;;5042191;28;20156;-83
2021/04/03 08:55:46;;;;;;;2.70;1.20;;;;;;;;;;5041201;28;20187;-83
2021/04/03 08:58:12;;;;;;;1.50;1.20;;;;;;;;;;5040739;28;20163;-80
2021/04/03 09:00:38;;;;;;;7.60;1.50;;;;;;;;;;5039873;28;20435;-83
2021/04/03 09:03:05;;;;;;;1.80;1.30;;;;;;;;;;5022272;28;20876;-81
2021/04/03 09:05:31;;;;;;;1.30;1.17;;;;;;;;;;5041139;28;20413;-84
2021/04/03 09:07:57;;;;;;;2.80;1.20;;;9.50;99.90;;;;;;5041980;28;20402;-83
2021/04/03 09:10:25;;;;;;;1.93;1.40;;;;;;;;;;5008502;28;20502;-83
2021/04/03 09:12:52;;;;;;;1.73;1.23;;;;;;;;;;5043627;28;20167;-84
2021/04/03 09:15:31;;;;;;;1.10;0.90;;;7.80;99.90;;;;;;5039190;28;20786;-82
2021/04/03 09:17:59;;;;;;;1.43;1.30;;;;;;;;;;5022241;28;20918;-83
2021/04/03 09:20:26;;;;;;;1.13;1.03;;;;;;;;;;5020595;28;20890;-81
2021/04/03 09:23:03;;;;;;;1.30;1.20;;;;;;;;;;5020724;28;21041;-83
2021/04/03 09:25:29;;;;;;;2.03;1.57;;;;;;;;;;5003541;28;20440;-81
2021/04/03 09:27:57;;;;;;;2.70;1.50;;;;;;;;;;5039900;28;20425;-82
2021/04/03 09:30:30;;;;;;;1.67;1.13;;;;;;;;;;5020550;28;20508;-81
2021/04/03 09:32:56;;;;;;;1.87;1.37;;;;;;;;;;5024021;28;20768;-81
2021/04/03 09:35:24;;;;;;;3.90;1.53;;;;;;;;;;5044791;28;20495;-82
2021/04/03 09:37:57;;;;;;;2.10;1.67;;;;;;;;;;5040506;28;20421;-84
2021/04/03 09:40:33;;;;;;;1.23;1.13;;;;;;;;;;5042078;28;20973;-83
2021/04/03 09:43:02;;;;;;;5.13;1.30;;;;;;;;;;5007187;28;20417;-82
2021/04/03 09:45:28;;;;;;;1.83;1.10;;;;;;;;;;5039373;28;20417;-83
2021/04/03 09:47:57;;;;;;;1.40;1.10;;;;;;;;;;5039166;28;20410;-82
2021/04/03 09:50:24;;;;;;;1.40;1.17;;;;;;;;;;5021639;28;20818;-82
2021/04/03 09:52:51;;;;;;;1.97;1.00;;;;;;;;;;5022814;28;20422;-84
2021/04/03 09:55:20;;;;;;;1.57;1.30;;;;;;;;;;5045525;28;20500;-82
2021/04/03 09:57:46;;;;;;;4.30;1.10;;;;;;;;;;5030454;28;20421;-84
2021/04/03 10:00:12;;;;;;;3.43;1.60;;;;;;;;;;5026369;28;20434;-83
2021/04/03 10:02:39;;;;;;;2.30;1.47;;;;;;;;;;5044028;28;20436;-84
2021/04/03 10:05:06;;;;;;;2.03;1.43;;;;;;;;;;5009019;28;20919;-84
2021/04/03 10:07:32;;;;;;;1.83;1.27;;;;;;;;;;5041569;28;20416;-83
2021/04/03 10:09:58;;;;;;;1.30;1.20;;;;;;;;;;5023202;28;20445;-83
2021/04/03 10:12:24;;;;;;;1.83;1.20;;;;;;;;;;5024652;28;20418;-82
2021/04/03 10:14:51;;;;;;;2.40;1.13;;;;;;;;;;5009696;28;20532;-81
2021/04/03 10:17:19;;;;;;;2.17;1.33;;;;;;;;;;5025927;28;20493;-82
2021/04/03 10:19:47;;;;;;;1.50;1.20;;;;;;;;;;5024983;28;20422;-82
2021/04/03 10:22:14;;;;;;;2.60;1.20;;;;;;;;;;5007034;28;20418;-83
2021/04/03 10:24:40;;;;;;;2.00;1.87;;;;;;;;;;5023508;28;20895;-83
2021/04/03 10:27:06;;;;;;;2.97;1.10;;;;;;;;;;5007423;28;20417;-82
2021/04/03 10:29:33;;;;;;;1.20;1.07;;;;;;;;;;5042051;28;20433;-84
2021/04/03 10:31:59;;;;;;;2.53;1.60;;;;;;;;;;5008076;28;20421;-83
2021/04/03 10:34:25;;;;;;;1.47;1.00;;;;;;;;;;5023177;28;20519;-81
2021/04/03 10:36:52;;;;;;;1.60;1.20;;;;;;;;;;5021932;28;20413;-82
2021/04/03 10:39:18;;;;;;;2.47;1.30;;;;;;;;;;5039492;28;20542;-81
2021/04/03 10:41:44;;;;;;;2.23;1.20;;;;;;;;;;5039219;28;20428;-80
2021/04/03 10:44:15;;;;;;;3.57;2.07;;;;;;;;;;5023569;28;20418;-84
2021/04/03 10:46:42;;;;;;;3.33;1.40;;;;;;;;;;5042028;28;20395;-82
2021/04/03 10:49:08;;;;;;;2.87;1.57;;;;;;;;;;5005716;28;20429;-82
2021/04/03 10:51:34;;;;;;;1.60;1.30;;;;;;;;;;5023796;28;20485;-83
2021/04/03 10:54:07;;;;;;;1.97;1.03;;;;;;;;;;5007375;28;20508;-82
2021/04/03 10:56:41;;;;;;;3.87;1.07;;;;;;;;;;5007683;28;20518;-82
2021/04/03 10:59:08;;;;;;;2.17;1.00;;;;;;;;;;5006013;28;20406;-83
2021/04/03 11:01:51;;;;;;;2.43;1.70;;;;;;;;;;5009567;28;20417;-84
2021/04/03 11:04:17;;;;;;;1.43;0.87;;;;;;;;;;5024294;28;20420;-83
2021/04/03 11:06:44;;;;;;;1.33;1.00;;;;;;;;;;5021402;28;20421;-83
2021/04/03 11:09:15;;;;;;;2.27;1.10;;;;;;;;;;5038541;28;20477;-82
2021/04/03 11:11:41;;;;;;;2.50;1.23;;;;;;;;;;5022639;28;20498;-83
2021/04/03 11:14:10;;;;;;;2.87;1.40;;;;;;;;;;5006865;28;20977;-83
2021/04/03 11:16:40;;;;;;;1.10;1.00;;;;;;;;;;5026090;28;20829;-84
2021/04/03 11:19:06;;;;;;;2.90;1.30;;;;;;;;;;5034817;28;20410;-83
2021/04/03 11:21:34;;;;;;;1.67;1.43;;;;;;;;;;5024080;28;20913;-84
2021/04/03 11:24:00;;;;;;;1.77;1.03;;;;;;;;;;5023699;28;20418;-83
2021/04/03 11:26:27;;;;;;;4.17;1.37;;;;;;;;;;5040576;28;20429;-82
2021/04/03 11:28:53;;;;;;;1.77;0.87;;;;;;;;;;5021858;28;20409;-82
2021/04/03 11:31:19;;;;;;;2.90;1.53;;;;;;;;;;5006821;28;20434;-83
2021/04/03 11:33:48;;;;;;;3.20;1.50;;;;;;;;;;5022819;28;20453;-83
2021/04/03 11:36:14;;;;;;;1.97;1.20;;;;;;;;;;5021619;28;20422;-83
2021/04/03 11:38:40;;;;;;;3.77;1.10;;;;;;;;;;5022140;28;20421;-83
2021/04/03 11:41:06;;;;;;;1.50;1.07;;;;;;;;;;5039019;28;20444;-82
2021/04/03 11:43:41;;;;;;;3.10;1.40;;;;;;;;;;5006741;28;20413;-84
2021/04/03 11:46:08;;;;;;;1.47;1.00;;;;;;;;;;5027670;28;20898;-83
2021/04/03 11:48:34;;;;;;;2.10;1.60;;;;;;;;;;5029904;28;20815;-82
2021/04/03 11:51:04;;;;;;;1.53;1.00;;;;;;;;;;5013410;28;20457;-85
2021/04/03 11:53:42;;;;;;;1.30;0.83;;;;;;;;;;5013593;28;20453;-83
2021/04/03 11:56:20;;;;;;;2.73;1.13;;;;;;;;;;5047567;28;20397;-83
2021/04/03 11:58:56;;;;;;;1.87;1.20;;;;;;;;;;5029265;28;20378;-83
2021/04/03 12:01:28;;;;;;;3.20;1.43;;;;;;;;;;5011014;28;20447;-84
2021/04/03 12:04:00;;;;;;;1.90;0.77;;;;;;;;;;5029293;28;20421;-83
2021/04/03 12:06:27;;;;;;;3.23;1.20;;;;;;;;;;5031534;28;20429;-83
2021/04/03 12:08:59;;;;;;;1.40;1.30;;;;;;;;;;5012027;28;20483;-81
2021/04/03 12:11:29;;;;;;;1.30;1.00;;;;;;;;;;5010742;28;20440;-83
2021/04/03 12:13:55;;;;;;;1.30;0.93;;;;;;;;;;5040991;28;20572;-83
2021/04/03 12:16:21;;;;;;;1.23;1.07;;;;;;;;;;5040989;28;20410;-84
2021/04/03 12:18:59;;;;;;;2.00;1.17;;;;;;;;;;5041858;28;20414;-84
2021/04/03 12:21:25;;;;;;;1.93;1.10;;;;;;;;;;5007166;28;20398;-85
2021/04/03 12:23:59;;;;;;;2.90;1.33;;;;;;;;;;5024790;28;20406;-83
2021/04/03 12:26:25;;;;;;;1.30;1.20;;;;;;;;;;5023573;28;20914;-82
2021/04/03 12:28:51;;;;;;;1.40;1.07;;;;;;;;;;5042263;28;20410;-82
2021/04/03 12:31:17;;;;;;;1.73;1.27;;;;;;;;;;5024191;28;20468;-84
2021/04/03 12:33:46;;;;;;;1.67;1.10;;;;;;;;;;5024898;28;20452;-81
2021/04/03 12:36:12;;;;;;;1.53;1.33;;;;;;;;;;5027231;28;20438;-84
2021/04/03 12:38:39;;;;;;;1.77;0.90;;;;;;;;;;5045366;28;20898;-84
2021/04/03 12:41:05;;;;;;;2.60;1.03;;;;;;;;;;5025076;28;20426;-82
2021/04/03 12:43:31;;;;;;;2.07;1.30;;;;;;;;;;5024844;28;20421;-82
2021/04/03 12:46:00;;;;;;;1.20;1.10;;;;;;;;;;5043073;28;20507;-83
2021/04/03 12:48:27;;;;;;;1.10;1.00;;;;;;;;;;5008029;28;20424;-84
2021/04/03 12:51:03;;;;;;;1.87;1.30;;;;;;;;;;5024832;28;21007;-84
2021/04/03 12:53:35;;;;;;;2.33;1.00;;;;;;;;;;5008414;28;20413;-83
2021/04/03 12:56:23;;;;;;;1.97;0.80;;;;;;;;;;5025815;28;20477;-85
2021/04/03 12:59:01;;;;;;;2.03;1.03;;;;;;;;;;5011673;28;20390;-87
2021/04/03 13:01:38;;;;;;;1.77;1.00;;;;;;;;;;5014438;28;20406;-83
2021/04/03 13:04:04;;;;;;;0.90;0.80;;;;;;;;;;5030334;28;20483;-84
2021/04/03 13:06:41;;;;;;;1.50;1.17;;;;;;;;;;5032886;28;20410;-84
2021/04/03 13:09:15;;;;;;;1.80;0.87;;;;;;;;;;5029049;28;20414;-85
2021/04/03 13:11:43;;;;;;;1.87;0.83;;;;;;;;;;5037939;28;20401;-85
2021/04/03 13:14:12;;;;;;;1.10;0.90;;;;;;;;;;5039913;28;20460;-85
2021/04/03 13:16:38;;;;;;;1.40;0.87;;;;;;;;;;5024676;28;20411;-84
2021/04/03 13:19:04;;;;;;;1.50;1.37;;;;;;;;;;5036736;28;20470;-86
2021/04/03 13:21:30;;;;;;;2.33;1.20;;;;;;;;;;5017403;28;20425;-84
2021/04/03 13:23:56;;;;;;;1.53;1.00;;;;;;;;;;5019109;28;20481;-84
2021/04/03 13:26:22;;;;;;;1.50;1.10;;;;;;;;;;5052353;28;20402;-84
2021/04/03 13:28:49;;;;;;;1.57;1.00;;;;;;;;;;5036216;28;20417;-83
2021/04/03 13:31:15;;;;;;;1.53;1.00;;;;;;;;;;5052442;28;20992;-84
2021/04/03 13:33:41;;;;;;;2.13;1.50;;;;;;;;;;5035082;28;20485;-85
2021/04/03 13:36:07;;;;;;;1.90;1.10;;;;;;;;;;5053254;28;20414;-84
2021/04/03 13:38:33;;;;;;;1.93;1.00;;;;;;;;;;5029619;28;20423;-82
2021/04/03 13:41:00;;;;;;;1.10;1.00;;;;;;;;;;5011802;28;20495;-82
2021/04/03 13:43:26;;;;;;;1.50;1.20;;;;;;;;;;5043661;28;20429;-82
2021/04/03 13:45:52;;;;;;;2.50;1.50;;;;;;;;;;5008403;28;20821;-82
2021/04/03 13:48:18;;;;;;;1.63;1.10;;;;;;;;;;5043681;28;20410;-83
2021/04/03 13:50:53;;;;;;;6.90;1.10;;;;;;;;;;5080439;23;20501;-84
2021/04/03 13:53:24;;;;;;;2.20;0.90;;;;;;;;;;5033138;28;20450;-85
2021/04/03 13:55:55;;;;;;;4.23;1.20;;;;;;;;;;5018466;28;20429;-85
2021/04/03 13:58:22;;;;;;;1.57;1.20;;;;;;;;;;5034815;28;20420;-82
2021/04/03 14:00:49;;;;;;;1.60;1.40;;;;;;;;;;5032656;28;20480;-82
2021/04/03 14:03:15;;;;;;;3.73;1.57;;;;;;;;;;5033272;28;20446;-81
2021/04/03 14:05:42;;;;;;;3.20;1.40;;;;;;;;;;5014168;28;20418;-81
2021/04/03 14:08:09;;;;;;;2.13;1.43;;;;;;;;;;5029800;28;20545;-81
2021/04/03 14:10:35;;;;;;;2.43;1.63;;;;;;;;;;5050873;28;20425;-80
2021/04/03 14:13:02;;;;;;;1.97;1.37;;;;;;;;;;5045259;28;20422;-81
2021/04/03 14:15:28;;;;;;;5.23;1.37;;;;;;;;;;5032060;28;20478;-81
2021/04/03 14:17:54;;;;;;;2.30;1.13;;;;;;;;;;5051167;28;20469;-82
2021/04/03 14:20:21;;;;;;;4.30;1.37;;;;;;;;;;5033295;28;20473;-80
2021/04/03 14:22:47;;;;;;;2.83;1.43;;;;;;;;;;5050952;28;20394;-80
2021/04/03 14:25:13;;;;;;;3.00;1.70;;;;;;;;;;5017442;28;20956;-81
2021/04/03 14:27:45;;;;;;;7.30;4.80;;;;;;;;;;5051529;28;20452;-82
2021/04/03 14:30:12;;;;;;;1.10;1.00;;;;;;;;;;5051760;28;20410;-81
2021/04/03 14:32:38;;;;;;;1.90;0.90;;;;;;;;;;5036297;28;20960;-81
2021/04/03 14:35:05;;;;;;;3.30;1.30;;;;;;;;;;5038802;28;20461;-81
2021/04/03 14:37:32;;;;;;;1.40;1.10;;;;;;;;;;5054397;28;20426;-80
2021/04/03 14:39:58;;;;;;;1.57;1.07;;;;;;;;;;5051314;28;20475;-82
2021/04/03 14:42:24;;;;;;;2.43;0.80;;;;;;;;;;5051130;28;20802;-82
2021/04/03 14:44:50;;;;;;;1.53;1.17;;;;;;;;;;5049251;28;20395;-83
2021/04/03 14:47:16;;;;;;;2.27;1.03;;;;;;;;;;5045464;28;20410;-82
2021/04/03 14:49:42;;;;;;;1.67;1.10;;;;;;;;;;5028491;28;20413;-81
2021/04/03 14:52:08;;;;;;;1.40;1.30;;;;;;;;;;5027994;28;20474;-82
2021/04/03 14:54:35;;;;;;;3.00;2.13;;;;;;;;;;5013351;28;20465;-82
2021/04/03 14:57:01;;;;;;;2.47;1.10;;;;;;;;;;5047674;28;20425;-82
2021/04/03 14:59:28;;;;;;;1.93;0.90;;;;;;;;;;5029481;28;20429;-81